Time;durP1;ratioP1;P1;durP2;ratioP2;P2;SDS_P1;SDS_P2;PMS_P1;PMS_P2;Temp;Humidity;BMP_temperature;BMP_pressure;BME280_temperature;BME280_humidity;BME280_pressure;Samples;Min_cycle;Max_cycle;Signal;HPM_P1;HPM_P2
2024/02/11 00:02:14;;;;;;;31.47;17.53;;;;;;;5.26;100.00;98553.16;5116934;27;20925;-52
2024/02/11 00:04:44;;;;;;;26.53;15.73;;;;;;;5.28;100.00;98540.41;5116693;27;20211;-48
2024/02/11 00:07:12;;;;;;;27.87;17.27;;;;;;;5.30;100.00;98544.63;5115417;27;20228;-51
2024/02/11 00:09:41;;;;;;;28.67;17.03;;;;;;;5.33;100.00;98551.38;5113757;28;20253;-50
2024/02/11 00:12:09;;;;;;;25.63;16.20;;;;;;;5.30;100.00;98552.28;5110290;28;20203;-49
2024/02/11 00:14:37;;;;;;;27.83;17.10;;;;;;;5.24;100.00;98542.16;5115606;27;20235;-52
2024/02/11 00:17:06;;;;;;;27.07;16.73;;;;;;;5.21;100.00;98552.41;5111586;27;20259;-53
2024/02/11 00:19:34;;;;;;;27.87;15.80;;;;;;;5.19;100.00;98549.03;5114037;28;20249;-50
2024/02/11 00:22:02;;;;;;;29.83;15.83;;;;;;;5.20;100.00;98552.44;5110686;28;20265;-52
2024/02/11 00:24:30;;;;;;;26.87;16.53;;;;;;;5.18;100.00;98555.00;5118125;27;20614;-50
2024/02/11 00:27:00;;;;;;;31.03;17.77;;;;;;;5.19;100.00;98553.28;5116510;27;20628;-50
2024/02/11 00:29:28;;;;;;;28.40;17.77;;;;;;;5.21;100.00;98551.56;5125896;27;20210;-49
2024/02/11 00:31:57;;;;;;;27.60;16.70;;;;;;;5.19;100.00;98559.25;5113899;27;20293;-50
2024/02/11 00:34:25;;;;;;;30.33;18.43;;;;;;;5.21;100.00;98554.13;5118519;27;20200;-49
2024/02/11 00:36:54;;;;;;;29.37;17.17;;;;;;;5.22;100.00;98564.28;5108895;28;20252;-52
2024/02/11 00:39:22;;;;;;;28.60;16.60;;;;;;;5.24;100.00;98564.28;5114743;27;20844;-51
2024/02/11 00:41:50;;;;;;;28.80;17.07;;;;;;;5.23;100.00;98568.56;5115724;27;20223;-50
2024/02/11 00:44:19;;;;;;;29.50;16.93;;;;;;;5.24;100.00;98561.75;5113407;28;20273;-55
2024/02/11 00:46:47;;;;;;;30.63;18.23;;;;;;;5.25;100.00;98564.25;5115268;27;20753;-50
2024/02/11 00:49:15;;;;;;;30.13;17.70;;;;;;;5.23;100.00;98562.63;5117490;27;20674;-50
2024/02/11 00:51:43;;;;;;;28.90;16.70;;;;;;;5.22;100.00;98561.75;5108661;27;20646;-51
2024/02/11 00:54:11;;;;;;;33.10;18.07;;;;;;;5.18;100.00;98555.00;5106297;28;20567;-56
2024/02/11 00:56:41;;;;;;;32.17;17.53;;;;;;;5.18;100.00;98560.09;5112780;28;20672;-50
2024/02/11 00:59:10;;;;;;;32.50;16.47;;;;;;;5.15;100.00;98561.84;5114863;27;20727;-51
2024/02/11 01:01:40;;;;;;;32.43;17.67;;;;;;;5.14;100.00;98555.06;5112878;28;20208;-56
2024/02/11 01:04:09;;;;;;;30.10;17.00;;;;;;;5.10;100.00;98556.81;5106260;27;20200;-51
2024/02/11 01:06:37;;;;;;;34.57;18.87;;;;;;;5.10;100.00;98551.72;5112784;28;20208;-54
2024/02/11 01:09:07;;;;;;;35.43;18.87;;;;;;;5.09;100.00;98552.56;5108059;27;20200;-55
2024/02/11 01:11:35;;;;;;;31.73;16.57;;;;;;;5.03;100.00;98555.19;5111713;28;20245;-56
2024/02/11 01:14:03;;;;;;;32.33;17.77;;;;;;;5.02;100.00;98545.88;5118341;27;20309;-56
2024/02/11 01:16:31;;;;;;;33.77;18.77;;;;;;;5.00;100.00;98548.41;5112000;28;20246;-53
2024/02/11 01:19:00;;;;;;;33.93;17.73;;;;;;;4.97;100.00;98551.03;5117446;27;20233;-53
2024/02/11 01:21:28;;;;;;;33.77;18.23;;;;;;;4.97;100.00;98548.50;5120949;27;20200;-56
2024/02/11 01:23:56;;;;;;;29.47;17.00;;;;;;;4.96;100.00;98548.50;5124207;27;20198;-56
2024/02/11 01:26:24;;;;;;;36.30;18.37;;;;;;;4.94;100.00;98543.41;5106753;27;20218;-58
2024/02/11 01:28:53;;;;;;;33.83;17.43;;;;;;;4.94;100.00;98538.31;5107518;28;20196;-55
2024/02/11 01:31:22;;;;;;;35.93;17.90;;;;;;;4.91;100.00;98538.34;5106766;28;20227;-54
2024/02/11 01:33:50;;;;;;;32.90;17.50;;;;;;;4.92;100.00;98544.28;5118504;27;20555;-56
2024/02/11 01:36:20;;;;;;;34.70;18.67;;;;;;;4.91;100.00;98540.06;5115400;27;20200;-57
2024/02/11 01:38:48;;;;;;;35.03;18.63;;;;;;;4.92;100.00;98534.94;5118765;27;20260;-51
2024/02/11 01:41:16;;;;;;;40.27;19.47;;;;;;;4.93;100.00;98545.97;5113918;27;20212;-58
2024/02/11 01:43:43;;;;;;;33.40;17.33;;;;;;;4.89;100.00;98544.31;5109066;27;20200;-53
2024/02/11 01:46:12;;;;;;;35.23;18.30;;;;;;;4.88;100.00;98540.09;5117422;27;20264;-53
2024/02/11 01:48:40;;;;;;;38.90;17.60;;;;;;;4.88;100.00;98542.66;5114963;27;20197;-62
2024/02/11 01:51:10;;;;;;;34.93;17.07;;;;;;;4.84;100.00;98532.47;5112533;27;20206;-52
2024/02/11 01:53:41;;;;;;;29.10;16.10;;;;;;;4.86;100.00;98529.91;5109234;27;20208;-53
2024/02/11 01:56:10;;;;;;;30.30;16.20;;;;;;;4.84;100.00;98531.63;5121213;27;20200;-55
2024/02/11 01:58:39;;;;;;;31.57;16.17;;;;;;;4.80;100.00;98533.38;5126916;27;20812;-58
2024/02/11 02:01:08;;;;;;;36.07;18.93;;;;;;;4.76;100.00;98521.53;5121280;27;20575;-56
2024/02/11 02:03:36;;;;;;;31.60;17.53;;;;;;;4.72;100.00;98522.44;5116345;27;20300;-61
2024/02/11 02:06:05;;;;;;;43.00;19.20;;;;;;;4.71;100.00;98533.47;5108358;27;20551;-58
2024/02/11 02:08:33;;;;;;;33.50;17.30;;;;;;;4.67;100.00;98525.88;5111451;28;20210;-54
2024/02/11 02:11:03;;;;;;;34.93;18.07;;;;;;;4.64;100.00;98534.44;5108379;28;20211;-54
2024/02/11 02:13:31;;;;;;;28.87;16.57;;;;;;;4.60;100.00;98523.44;5111569;28;20211;-55
2024/02/11 02:16:00;;;;;;;32.33;17.53;;;;;;;4.61;100.00;98531.94;5111394;28;20208;-53
2024/02/11 02:18:34;;;;;;;33.73;18.47;;;;;;;4.61;100.00;98526.81;5121937;27;20239;-54
2024/02/11 02:21:04;;;;;;;31.33;16.13;;;;;;;4.59;100.00;98526.00;5111922;27;20254;-53
2024/02/11 02:23:34;;;;;;;31.27;16.70;;;;;;;4.57;100.00;98520.06;5115694;27;20199;-58
2024/02/11 02:26:07;;;;;;;36.23;17.50;;;;;;;4.56;100.00;98523.47;5105902;28;20212;-53
2024/02/11 02:28:36;;;;;;;34.07;17.03;;;;;;;4.53;100.00;98523.53;5117591;27;20203;-51
2024/02/11 02:31:05;;;;;;;34.30;17.23;;;;;;;4.52;100.00;98529.47;5110855;28;20203;-58
2024/02/11 02:33:34;;;;;;;31.33;17.27;;;;;;;4.50;100.00;98533.75;5113657;27;20253;-52
2024/02/11 02:36:02;;;;;;;36.53;16.83;;;;;;;4.49;100.00;98524.41;5117169;27;20204;-60
2024/02/11 02:38:30;;;;;;;35.57;17.33;;;;;;;4.50;100.00;98526.09;5113146;28;20196;-51
2024/02/11 02:40:59;;;;;;;37.20;17.93;;;;;;;4.51;100.00;98528.63;5111541;28;20223;-50
2024/02/11 02:43:27;;;;;;;31.83;17.77;;;;;;;4.55;100.00;98540.47;5114516;28;20227;-53
2024/02/11 02:45:55;;;;;;;30.83;17.27;;;;;;;4.58;100.00;98540.44;5109096;28;20257;-53
2024/02/11 02:48:23;;;;;;;27.60;17.17;;;;;;;4.60;100.00;98532.75;5114168;28;20650;-51
2024/02/11 02:50:51;;;;;;;29.13;17.33;;;;;;;4.58;100.00;98526.84;5112522;28;20244;-58
2024/02/11 02:53:19;;;;;;;31.40;17.30;;;;;;;4.58;100.00;98516.66;5111908;28;20199;-51
2024/02/11 02:55:47;;;;;;;27.30;15.70;;;;;;;4.57;100.00;98523.47;5114334;28;20646;-50
2024/02/11 02:58:16;;;;;;;28.13;16.00;;;;;;;4.56;100.00;98508.16;5114497;27;20203;-51
2024/02/11 03:00:45;;;;;;;34.27;16.87;;;;;;;4.57;100.00;98517.53;5112202;28;20655;-49
2024/02/11 03:03:13;;;;;;;31.97;17.60;;;;;;;4.56;100.00;98513.25;5108726;28;20659;-50
2024/02/11 03:05:42;;;;;;;32.03;17.53;;;;;;;4.55;100.00;98514.13;5107121;28;20200;-56
2024/02/11 03:08:10;;;;;;;33.33;17.00;;;;;;;4.54;100.00;98515.00;5103287;28;20719;-50
2024/02/11 03:10:38;;;;;;;33.33;17.63;;;;;;;4.53;100.00;98514.16;5110509;28;20650;-53
2024/02/11 03:13:06;;;;;;;29.37;16.53;;;;;;;4.55;100.00;98514.97;5116964;28;20211;-50
2024/02/11 03:15:35;;;;;;;33.37;17.67;;;;;;;4.59;100.00;98518.34;5119173;28;20589;-51
2024/02/11 03:18:04;;;;;;;32.53;18.37;;;;;;;4.57;100.00;98513.25;5114025;28;20280;-56
2024/02/11 03:20:33;;;;;;;27.57;16.23;;;;;;;4.59;100.00;98516.63;5111180;28;20219;-50
2024/02/11 03:23:01;;;;;;;32.97;18.33;;;;;;;4.62;100.00;98518.31;5105747;28;20722;-53
2024/02/11 03:25:30;;;;;;;30.63;17.40;;;;;;;4.63;100.00;98511.50;5102126;28;20291;-50
2024/02/11 03:27:57;;;;;;;33.17;17.20;;;;;;;4.64;100.00;98506.38;5113065;28;20208;-52
2024/02/11 03:30:24;;;;;;;36.67;18.10;;;;;;;4.60;100.00;98522.56;5111726;28;20193;-50
2024/02/11 03:32:54;;;;;;;34.87;16.90;;;;;;;4.54;100.00;98513.28;5113924;28;20204;-56
2024/02/11 03:35:22;;;;;;;32.03;17.33;;;;;;;4.56;100.00;98520.91;5111110;28;20200;-60
2024/02/11 03:37:50;;;;;;;33.60;18.00;;;;;;;4.57;100.00;98538.78;5112898;28;20647;-56
2024/02/11 03:40:19;;;;;;;30.10;17.40;;;;;;;4.58;100.00;98532.78;5107083;28;20196;-54
2024/02/11 03:42:47;;;;;;;27.67;17.10;;;;;;;4.58;100.00;98531.97;5110470;28;20299;-55
2024/02/11 03:45:18;;;;;;;32.00;18.03;;;;;;;4.59;100.00;98531.09;5124932;27;20227;-53
2024/02/11 03:47:47;;;;;;;31.43;16.80;;;;;;;4.57;100.00;98531.13;5121867;27;20230;-53
2024/02/11 03:50:19;;;;;;;35.10;17.77;;;;;;;4.58;100.00;98530.25;5123650;27;20195;-53
2024/02/11 03:52:47;;;;;;;30.83;17.87;;;;;;;4.56;100.00;98537.06;5117171;27;20205;-54
2024/02/11 03:55:15;;;;;;;29.47;17.23;;;;;;;4.54;100.00;98533.69;5117301;27;20577;-53
2024/02/11 03:57:43;;;;;;;30.13;17.60;;;;;;;4.53;100.00;98531.19;5119040;27;20203;-52
2024/02/11 04:00:16;;;;;;;30.07;16.80;;;;;;;4.52;100.00;98525.22;5117163;27;20196;-56
2024/02/11 04:02:44;;;;;;;30.43;17.27;;;;;;;4.50;100.00;98531.22;5112958;28;20284;-55
2024/02/11 04:05:16;;;;;;;28.87;18.00;;;;;;;4.48;100.00;98528.66;5119137;27;20195;-57
2024/02/11 04:07:46;;;;;;;34.53;18.90;;;;;;;4.47;100.00;98528.69;5114475;28;20252;-54
2024/02/11 04:10:18;;;;;;;33.47;18.50;;;;;;;4.46;100.00;98532.94;5113478;28;20200;-52
2024/02/11 04:12:47;;;;;;;32.97;18.40;;;;;;;4.47;100.00;98546.53;5111257;28;20547;-55
2024/02/11 04:15:16;;;;;;;29.20;17.33;;;;;;;4.44;100.00;98536.38;5112041;28;20231;-59
2024/02/11 04:17:48;;;;;;;31.57;17.27;;;;;;;4.43;100.00;98539.78;5114454;27;20232;-53
2024/02/11 04:20:24;;;;;;;28.40;16.73;;;;;;;4.46;100.00;98534.66;5115319;27;20222;-53
2024/02/11 04:22:57;;;;;;;30.23;17.80;;;;;;;4.48;100.00;98527.81;5114788;27;20695;-54
2024/02/11 04:25:26;;;;;;;30.97;18.40;;;;;;;4.47;100.00;98529.53;5114655;27;20196;-52
2024/02/11 04:27:54;;;;;;;28.77;16.90;;;;;;;4.48;100.00;98522.72;5114709;27;20204;-54
2024/02/11 04:30:22;;;;;;;28.97;17.77;;;;;;;4.49;100.00;98520.16;5115212;27;20203;-54
2024/02/11 04:32:51;;;;;;;26.07;17.20;;;;;;;4.51;100.00;98518.44;5115358;27;20216;-55
2024/02/11 04:35:24;;;;;;;27.63;16.97;;;;;;;4.52;100.00;98516.72;5107253;28;20200;-57
2024/02/11 04:37:53;;;;;;;28.63;16.63;;;;;;;4.50;100.00;98514.19;5109614;27;20204;-53
2024/02/11 04:40:25;;;;;;;27.13;16.17;;;;;;;4.52;100.00;98509.06;5121907;27;20199;-56
2024/02/11 04:42:53;;;;;;;27.07;15.90;;;;;;;4.53;100.00;98505.69;5124362;27;20565;-54
2024/02/11 04:45:23;;;;;;;28.93;16.27;;;;;;;4.54;100.00;98504.81;5117533;27;20207;-53
2024/02/11 04:47:58;;;;;;;30.60;16.60;;;;;;;4.56;100.00;98510.72;5113668;27;20219;-54
2024/02/11 04:50:27;;;;;;;23.83;16.27;;;;;;;4.56;100.00;98510.72;5127528;27;20639;-54
2024/02/11 04:52:58;;;;;;;26.13;16.17;;;;;;;4.58;100.00;98503.91;5100137;28;20196;-52
2024/02/11 04:55:29;;;;;;;26.10;16.20;;;;;;;4.59;100.00;98506.41;5109944;27;20331;-55
2024/02/11 04:57:58;;;;;;;26.10;16.13;;;;;;;4.62;100.00;98503.00;5115078;27;20204;-54
2024/02/11 05:00:26;;;;;;;27.00;17.13;;;;;;;4.64;100.00;98503.84;5116322;27;20211;-55
2024/02/11 05:02:56;;;;;;;27.33;16.67;;;;;;;4.66;100.00;98494.44;5113695;27;20230;-54
2024/02/11 05:05:28;;;;;;;27.30;17.27;;;;;;;4.67;100.00;98497.81;5120939;27;20287;-54
2024/02/11 05:07:57;;;;;;;25.83;16.13;;;;;;;4.68;100.00;98491.88;5115231;27;20222;-57
2024/02/11 05:10:27;;;;;;;27.60;15.87;;;;;;;4.67;100.00;98488.47;5112881;28;20208;-61
2024/02/11 05:12:57;;;;;;;30.10;17.23;;;;;;;4.69;100.00;98484.19;5112912;28;20288;-53
2024/02/11 05:15:25;;;;;;;26.43;16.00;;;;;;;4.70;100.00;98487.59;5112649;28;20200;-54
2024/02/11 05:17:54;;;;;;;24.20;16.33;;;;;;;4.68;100.00;98479.97;5112850;28;20804;-55
2024/02/11 05:20:23;;;;;;;24.17;15.80;;;;;;;4.71;100.00;98490.09;5101037;28;20222;-57
2024/02/11 05:22:52;;;;;;;26.33;17.00;;;;;;;4.71;100.00;98492.66;5110359;28;20216;-61
2024/02/11 05:25:20;;;;;;;23.27;15.40;;;;;;;4.70;100.00;98490.13;5115745;27;20200;-56
2024/02/11 05:27:53;;;;;;;25.33;16.77;;;;;;;4.71;100.00;98495.22;5112450;28;20235;-53
2024/02/11 05:30:24;;;;;;;22.40;15.43;;;;;;;4.69;100.00;98491.84;5114756;27;20203;-54
2024/02/11 05:32:53;;;;;;;21.23;14.10;;;;;;;4.68;100.00;98495.28;5119652;27;20201;-54
2024/02/11 05:35:23;;;;;;;26.23;15.17;;;;;;;4.69;100.00;98496.13;5112293;27;20203;-53
2024/02/11 05:37:57;;;;;;;23.87;15.53;;;;;;;4.69;100.00;98496.94;5112994;27;20200;-58
2024/02/11 05:40:26;;;;;;;21.90;14.80;;;;;;;4.70;100.00;98495.25;5108451;27;20657;-58
2024/02/11 05:42:55;;;;;;;20.93;15.30;;;;;;;4.69;100.00;98496.94;5112651;28;20701;-54
2024/02/11 05:45:24;;;;;;;23.03;16.57;;;;;;;4.69;100.00;98496.94;5122219;27;20235;-51
2024/02/11 05:47:53;;;;;;;22.03;14.77;;;;;;;4.71;100.00;98505.41;5114265;27;20214;-56
2024/02/11 05:50:22;;;;;;;23.23;14.80;;;;;;;4.71;100.00;98500.31;5120234;27;20227;-54
2024/02/11 05:52:51;;;;;;;22.10;14.23;;;;;;;4.70;100.00;98502.91;5110192;27;20199;-51
2024/02/11 05:55:20;;;;;;;22.40;15.00;;;;;;;4.71;100.00;98505.41;5110119;27;20253;-51
2024/02/11 05:57:49;;;;;;;22.73;15.93;;;;;;;4.73;100.00;98506.25;5112166;28;20204;-54
2024/02/11 06:00:21;;;;;;;24.23;15.40;;;;;;;4.74;100.00;98505.38;5114314;27;20203;-53
2024/02/11 06:02:53;;;;;;;20.77;14.53;;;;;;;4.75;100.00;98507.09;5115321;27;20605;-64
2024/02/11 06:05:22;;;;;;;21.03;14.60;;;;;;;4.75;100.00;98509.63;5118372;27;20199;-52
2024/02/11 06:07:54;;;;;;;24.77;15.20;;;;;;;4.76;100.00;98508.78;5108489;28;20597;-50
2024/02/11 06:10:25;;;;;;;20.03;14.17;;;;;;;4.77;100.00;98507.91;5111047;28;20207;-50
2024/02/11 06:12:54;;;;;;;20.43;14.13;;;;;;;4.75;100.00;98502.00;5110419;27;20282;-51
2024/02/11 06:15:23;;;;;;;21.50;14.97;;;;;;;4.76;100.00;98508.78;5112199;28;20666;-53
2024/02/11 06:17:53;;;;;;;22.57;14.63;;;;;;;4.75;100.00;98502.00;5105506;28;20239;-51
2024/02/11 06:20:23;;;;;;;20.17;14.50;;;;;;;4.77;100.00;98504.50;5112377;27;20952;-58
2024/02/11 06:22:53;;;;;;;19.53;13.73;;;;;;;4.75;100.00;98499.44;5111334;28;20314;-57
2024/02/11 06:25:22;;;;;;;21.90;14.73;;;;;;;4.74;100.00;98494.34;5112024;28;20615;-54
2024/02/11 06:27:52;;;;;;;21.13;13.97;;;;;;;4.74;100.00;98502.81;5112803;27;20711;-49
2024/02/11 06:30:21;;;;;;;19.10;13.17;;;;;;;4.75;100.00;98496.88;5114870;27;20202;-58
2024/02/11 06:32:53;;;;;;;18.60;13.53;;;;;;;4.73;100.00;98493.50;5117641;27;20597;-50
2024/02/11 06:35:23;;;;;;;23.10;14.63;;;;;;;4.77;100.00;98505.34;5121939;27;20207;-55
2024/02/11 06:37:52;;;;;;;19.97;14.33;;;;;;;4.80;100.00;98499.38;5116787;27;20241;-54
2024/02/11 06:40:25;;;;;;;22.03;14.87;;;;;;;4.79;100.00;98500.25;5104934;28;20577;-48
2024/02/11 06:42:55;;;;;;;20.53;14.97;;;;;;;4.83;100.00;98496.78;5121543;28;20267;-51
2024/02/11 06:45:24;;;;;;;19.90;14.47;;;;;;;4.85;100.00;98490.78;5105284;27;20204;-53
2024/02/11 06:47:53;;;;;;;19.97;14.07;;;;;;;4.89;100.00;98503.50;5117372;28;20237;-51
2024/02/11 06:50:22;;;;;;;21.00;14.23;;;;;;;4.89;100.00;98494.13;5119125;28;20269;-50
2024/02/11 06:52:50;;;;;;;18.70;13.67;;;;;;;4.90;100.00;98497.50;5116403;28;20257;-51
2024/02/11 06:55:19;;;;;;;19.37;13.43;;;;;;;4.89;100.00;98496.69;5108933;28;20214;-51
2024/02/11 06:57:49;;;;;;;19.03;13.50;;;;;;;4.90;100.00;98495.84;5103976;28;20200;-55
2024/02/11 07:00:18;;;;;;;20.53;14.20;;;;;;;4.92;100.00;98498.34;5109673;28;20203;-52
2024/02/11 07:02:52;;;;;;;20.73;13.97;;;;;;;4.93;100.00;98500.03;5109608;28;20590;-53
2024/02/11 07:05:24;;;;;;;21.23;14.20;;;;;;;4.94;100.00;98506.84;5109865;28;20211;-51
2024/02/11 07:07:54;;;;;;;19.90;14.13;;;;;;;4.95;100.00;98493.22;5111587;28;20561;-50
2024/02/11 07:10:25;;;;;;;19.93;14.37;;;;;;;4.95;100.00;98493.22;5111712;28;20320;-50
2024/02/11 07:12:55;;;;;;;20.00;14.10;;;;;;;4.95;100.00;98493.22;5113874;28;20296;-52
2024/02/11 07:15:23;;;;;;;19.77;14.90;;;;;;;4.95;100.00;98488.09;5115463;28;20747;-50
2024/02/11 07:17:51;;;;;;;18.87;13.37;;;;;;;4.96;100.00;98489.78;5105370;28;20600;-53
2024/02/11 07:20:19;;;;;;;19.50;14.33;;;;;;;4.98;100.00;98493.19;5125252;27;20646;-50
2024/02/11 07:22:48;;;;;;;21.53;15.30;;;;;;;5.00;100.00;98488.88;5116588;27;20219;-49
2024/02/11 07:25:17;;;;;;;21.67;13.97;;;;;;;5.03;100.00;98486.28;5103392;28;20223;-51
2024/02/11 07:27:46;;;;;;;17.17;12.67;;;;;;;5.04;100.00;98482.84;5121873;27;20227;-52
2024/02/11 07:30:14;;;;;;;18.23;13.70;;;;;;;5.06;100.00;98483.69;5109938;27;20196;-51
2024/02/11 07:32:43;;;;;;;18.83;13.00;;;;;;;5.10;100.00;98487.88;5119570;27;20662;-53
2024/02/11 07:35:13;;;;;;;19.83;13.40;;;;;;;5.09;100.00;98476.84;5113716;28;20196;-53
2024/02/11 07:37:43;;;;;;;22.77;14.73;;;;;;;5.11;100.00;98478.50;5106852;28;20334;-55
2024/02/11 07:40:15;;;;;;;20.57;14.87;;;;;;;5.11;100.00;98479.34;5115436;27;20202;-58
2024/02/11 07:42:45;;;;;;;19.63;13.77;;;;;;;5.12;100.00;98480.19;5118559;27;20567;-54
2024/02/11 07:45:14;;;;;;;21.57;14.77;;;;;;;5.12;100.00;98481.06;5114754;28;20200;-52
2024/02/11 07:47:47;;;;;;;19.27;13.97;;;;;;;5.12;100.00;98475.94;5116783;27;20203;-58
2024/02/11 07:50:17;;;;;;;20.63;14.53;;;;;;;5.13;100.00;98477.63;5112521;27;20249;-52
2024/02/11 07:52:47;;;;;;;19.77;14.40;;;;;;;5.14;100.00;98478.47;5117005;27;20242;-50
2024/02/11 07:55:18;;;;;;;19.23;14.23;;;;;;;5.14;100.00;98474.19;5119499;27;20199;-60
2024/02/11 07:57:46;;;;;;;23.30;14.57;;;;;;;5.16;100.00;98477.59;5107696;28;20204;-53
2024/02/11 08:00:19;;;;;;;20.37;15.40;;;;;;;5.17;100.00;98473.31;5127427;27;20204;-52
2024/02/11 08:02:50;;;;;;;19.63;13.50;;;;;;;5.20;100.00;98481.78;5114359;27;20587;-50
2024/02/11 08:05:21;;;;;;;20.83;15.00;;;;;;;5.22;100.00;98480.03;5108121;27;20203;-57
2024/02/11 08:07:50;;;;;;;21.37;14.87;;;;;;;5.23;100.00;98479.19;5113092;28;20910;-56
2024/02/11 08:10:21;;;;;;;20.60;14.23;;;;;;;5.26;100.00;98488.50;5114012;28;20199;-51
2024/02/11 08:12:50;;;;;;;23.17;16.43;;;;;;;5.25;100.00;98480.00;5114262;28;20283;-55
2024/02/11 08:15:18;;;;;;;23.70;14.83;;;;;;;5.29;100.00;98478.22;5108950;27;20200;-54
2024/02/11 08:17:46;;;;;;;22.13;14.87;;;;;;;5.32;100.00;98473.09;5115285;27;20239;-52
2024/02/11 08:20:15;;;;;;;23.40;15.03;;;;;;;5.35;100.00;98474.75;5111302;27;20688;-53
2024/02/11 08:22:44;;;;;;;22.70;15.67;;;;;;;5.37;100.00;98476.41;5117077;27;20666;-56
2024/02/11 08:25:13;;;;;;;25.03;14.80;;;;;;;5.36;100.00;98469.63;5113703;27;20231;-53
2024/02/11 08:27:42;;;;;;;20.83;14.70;;;;;;;5.39;100.00;98478.94;5117010;27;20204;-52
2024/02/11 08:30:12;;;;;;;21.83;15.47;;;;;;;5.40;100.00;98468.69;5111378;27;20204;-57
2024/02/11 08:32:42;;;;;;;20.67;15.20;;;;;;;5.41;100.00;98472.09;5106518;27;20212;-56
2024/02/11 08:35:11;;;;;;;20.57;16.17;;;;;;;5.46;100.00;98488.19;5117488;27;20287;-61
2024/02/11 08:37:40;;;;;;;23.60;16.33;;;;;;;5.47;100.00;98469.44;5114901;27;20234;-58
2024/02/11 08:40:10;;;;;;;23.70;17.03;;;;;;;5.50;100.00;98479.63;5121401;27;20658;-55
2024/02/11 08:42:39;;;;;;;21.90;15.70;;;;;;;5.49;100.00;98478.78;5125519;27;20210;-54
2024/02/11 08:45:09;;;;;;;20.10;15.57;;;;;;;5.50;100.00;98475.34;5123284;27;20239;-55
2024/02/11 08:47:38;;;;;;;23.87;16.47;;;;;;;5.51;100.00;98474.47;5112096;28;20284;-55
2024/02/11 08:50:09;;;;;;;25.50;15.70;;;;;;;5.57;100.00;98471.81;5113221;27;20277;-57
2024/02/11 08:52:38;;;;;;;23.90;15.87;;;;;;;5.60;100.00;98478.59;5112234;28;20211;-56
2024/02/11 08:55:07;;;;;;;23.50;16.40;;;;;;;5.64;100.00;98480.22;5112678;27;20231;-59
2024/02/11 08:57:36;;;;;;;20.97;15.50;;;;;;;5.70;100.00;98477.56;5112219;27;20730;-55
2024/02/11 09:00:08;;;;;;;24.07;16.10;;;;;;;5.72;100.00;98475.81;5113157;27;20211;-52
2024/02/11 09:02:37;;;;;;;22.50;15.50;;;;;;;5.77;100.00;98483.41;5113728;27;20199;-56
2024/02/11 09:05:05;;;;;;;24.13;16.20;;;;;;;5.78;100.00;98478.28;5109629;27;20211;-56
2024/02/11 09:07:34;;;;;;;26.27;16.60;;;;;;;5.82;100.00;98473.97;5113523;27;20239;-52
2024/02/11 09:10:02;;;;;;;25.57;17.07;;;;;;;5.85;100.00;98481.56;5119696;27;20203;-62
2024/02/11 09:12:30;;;;;;;22.50;16.10;;;;;;;5.89;100.00;98474.66;5124186;27;20203;-58
2024/02/11 09:14:58;;;;;;;25.00;16.77;;;;;;;5.92;100.00;98474.63;5111485;27;20229;-57
2024/02/11 09:17:27;;;;;;;23.03;16.40;;;;;;;5.97;100.00;98468.59;5107823;27;20251;-54
2024/02/11 09:19:57;;;;;;;23.47;15.60;;;;;;;6.02;100.00;98468.50;5105576;27;20789;-57
2024/02/11 09:22:26;;;;;;;25.47;16.63;;;;;;;6.05;100.00;98471.00;5112092;27;20200;-56
2024/02/11 09:24:54;;;;;;;21.10;15.47;;;;;;;6.10;100.00;98464.09;5112326;28;20379;-54
2024/02/11 09:27:23;;;;;;;25.43;17.30;;;;;;;6.14;100.00;98464.88;5104874;28;20728;-54
2024/02/11 09:29:51;;;;;;;24.90;16.57;;;;;;;6.18;100.00;98462.22;5118034;27;20206;-57
2024/02/11 09:32:19;;;;;;;26.53;16.50;;;;;;;6.22;100.00;98456.19;5110818;27;20660;-54
2024/02/11 09:34:50;;;;;;;20.50;14.93;;;;;;;6.27;100.00;98461.22;5111712;27;20196;-55
2024/02/11 09:37:19;;;;;;;22.57;15.67;;;;;;;6.32;100.00;98456.00;5111016;27;20195;-54
2024/02/11 09:39:47;;;;;;;25.37;15.73;;;;;;;6.34;100.00;98454.28;5111193;28;20578;-56
2024/02/11 09:42:16;;;;;;;22.43;15.83;;;;;;;6.38;100.00;98448.22;5104491;27;20200;-52
2024/02/11 09:44:47;;;;;;;23.67;15.13;;;;;;;6.42;100.00;98445.56;5122321;27;20219;-57
2024/02/11 09:47:17;;;;;;;23.03;16.37;;;;;;;6.48;100.00;98449.69;5108691;27;20200;-52
2024/02/11 09:49:48;;;;;;;23.17;16.17;;;;;;;6.52;100.00;98446.22;5118278;27;20256;-57
2024/02/11 09:52:21;;;;;;;22.80;16.70;;;;;;;6.58;100.00;98435.84;5108080;27;20225;-57
2024/02/11 09:54:51;;;;;;;23.13;15.43;;;;;;;6.63;100.00;98441.72;5115767;27;20662;-50
2024/02/11 09:57:19;;;;;;;22.83;16.00;;;;;;;6.69;100.00;98431.31;5113295;27;20261;-55
2024/02/11 09:59:47;;;;;;;25.63;15.73;;;;;;;6.76;100.00;98438.00;5114947;27;20763;-55
2024/02/11 10:02:18;;;;;;;22.63;15.80;;;;;;;6.81;100.00;98435.31;5108760;27;20548;-52
2024/02/11 10:04:47;;;;;;;23.10;14.63;;;;;;;6.88;100.00;98436.03;5110564;27;20216;-57
2024/02/11 10:07:27;;;;;;;21.50;15.23;;;;;;;6.94;100.00;98434.19;5111107;28;20215;-65
2024/02/11 10:09:58;;;;;;;23.93;14.90;;;;;;;7.00;100.00;98433.22;5114304;27;20215;-52
2024/02/11 10:12:26;;;;;;;23.03;14.60;;;;;;;7.03;100.00;98435.69;5108830;27;20287;-54
2024/02/11 10:14:57;;;;;;;20.43;14.77;;;;;;;7.07;100.00;98427.09;5113238;27;20579;-53
2024/02/11 10:17:25;;;;;;;21.33;15.10;;;;;;;7.11;100.00;98425.28;5106856;27;20847;-54
2024/02/11 10:19:54;;;;;;;18.67;13.90;;;;;;;7.15;100.00;98422.63;5106164;27;20643;-55
2024/02/11 10:22:24;;;;;;;18.40;13.17;;;;;;;7.18;100.00;98422.53;5109886;28;20661;-55
2024/02/11 10:24:57;;;;;;;19.67;13.93;;;;;;;7.22;100.00;98413.91;5110558;27;20204;-52
2024/02/11 10:27:25;;;;;;;21.80;14.40;;;;;;;7.25;100.00;98418.09;5106511;28;20196;-51
2024/02/11 10:29:53;;;;;;;19.30;14.47;;;;;;;7.29;100.00;98413.72;5113081;27;20646;-55
2024/02/11 10:32:22;;;;;;;21.90;14.13;;;;;;;7.33;100.00;98403.41;5106337;28;20199;-59
2024/02/11 10:34:50;;;;;;;19.77;14.50;;;;;;;7.36;100.00;98410.13;5107190;28;20193;-52
2024/02/11 10:37:18;;;;;;;23.47;14.87;;;;;;;7.39;100.00;98410.06;5110396;28;20607;-56
2024/02/11 10:39:49;;;;;;;16.60;12.53;;;;;;;7.42;100.00;98404.88;5115946;27;20203;-51
2024/02/11 10:42:17;;;;;;;23.23;14.03;;;;;;;7.43;100.00;98401.44;5118584;28;20195;-54
2024/02/11 10:44:49;;;;;;;22.43;14.50;;;;;;;7.46;100.00;98403.91;5112296;28;20314;-61
2024/02/11 10:47:17;;;;;;;18.50;12.33;;;;;;;7.49;100.00;98401.28;5112767;28;20256;-54
2024/02/11 10:49:45;;;;;;;21.70;13.80;;;;;;;7.50;100.00;98395.25;5114517;28;20214;-56
2024/02/11 10:52:16;;;;;;;18.57;14.07;;;;;;;7.47;100.00;98393.66;5113597;28;20208;-50
2024/02/11 10:54:47;;;;;;;17.07;13.10;;;;;;;7.50;100.00;98392.69;5118130;27;20200;-50
2024/02/11 10:57:21;;;;;;;16.57;13.60;;;;;;;7.50;100.00;98387.56;5115543;28;20239;-53
2024/02/11 10:59:53;;;;;;;19.10;14.00;;;;;;;7.54;100.00;98381.50;5127376;27;20207;-50
2024/02/11 11:02:23;;;;;;;18.67;13.20;;;;;;;7.56;100.00;98382.31;5112300;27;20203;-52
2024/02/11 11:04:54;;;;;;;19.37;13.40;;;;;;;7.57;100.00;98390.81;5112366;27;20210;-55
2024/02/11 11:07:23;;;;;;;18.80;13.07;;;;;;;7.59;100.00;98371.97;5116296;27;20643;-53
2024/02/11 11:09:51;;;;;;;17.67;14.10;;;;;;;7.60;100.00;98371.09;5116533;27;20546;-55
2024/02/11 11:12:24;;;;;;;18.33;12.93;;;;;;;7.61;100.00;98375.31;5117314;27;20199;-50
2024/02/11 11:14:57;;;;;;;17.40;12.60;;;;;;;7.65;100.00;98376.91;5118481;27;20643;-52
2024/02/11 11:17:27;;;;;;;15.73;12.00;;;;;;;7.64;100.00;98367.56;5108974;28;20235;-55
2024/02/11 11:19:59;;;;;;;17.50;13.13;;;;;;;7.67;100.00;98364.91;5110778;27;20231;-54
2024/02/11 11:22:28;;;;;;;18.80;13.43;;;;;;;7.70;100.00;98372.53;5111095;27;20202;-52
2024/02/11 11:24:57;;;;;;;17.47;12.07;;;;;;;7.73;100.00;98372.44;5114004;27;20218;-52
2024/02/11 11:27:26;;;;;;;21.27;14.13;;;;;;;7.78;100.00;98371.47;5124902;27;20235;-55